createdAt,value
2018-11-20T00:00:42.703Z,4.80
2018-11-20T00:03:35.209Z,4.70
2018-11-20T00:06:25.871Z,4.90
2018-11-20T00:09:30.442Z,4.90
2018-11-20T00:12:37.703Z,4.80
2018-11-20T00:15:22.775Z,4.90
2018-11-20T00:18:18.140Z,4.90
2018-11-20T00:21:03.037Z,4.80
2018-11-20T00:24:07.513Z,4.90
2018-11-20T00:26:51.507Z,4.80
2018-11-20T00:29:42.754Z,4.80
2018-11-20T00:32:38.056Z,4.90
2018-11-20T00:35:29.194Z,4.80
2018-11-20T00:38:08.994Z,4.90
2018-11-20T00:41:01.364Z,4.80
2018-11-20T00:44:02.848Z,4.70
2018-11-20T00:46:54.231Z,4.90
2018-11-20T00:49:43.092Z,4.80
2018-11-20T00:52:41.066Z,4.70
2018-11-20T00:56:25.696Z,4.60
2018-11-20T00:59:08.065Z,4.60
2018-11-20T01:02:06.890Z,4.60
2018-11-20T01:04:57.700Z,4.50
2018-11-20T01:07:53.383Z,4.50
2018-11-20T01:10:44.266Z,4.40
2018-11-20T01:13:42.296Z,4.50
2018-11-20T01:16:35.281Z,4.40
2018-11-20T01:19:26.360Z,4.40
2018-11-20T01:22:20.224Z,4.50
2018-11-20T01:25:27.631Z,4.60
2018-11-20T01:28:22.899Z,4.50
2018-11-20T01:31:18.133Z,4.40
2018-11-20T01:34:10.656Z,4.40
2018-11-20T01:37:09.414Z,4.40
2018-11-20T01:40:01.860Z,4.50
2018-11-20T01:43:09.261Z,4.40
2018-11-20T01:45:58.775Z,4.50
2018-11-20T01:48:45.624Z,4.30
2018-11-20T01:51:38.849Z,4.40
2018-11-20T01:54:31.758Z,4.40
2018-11-20T01:57:30.368Z,4.40
2018-11-20T02:00:19.590Z,4.40
2018-11-20T02:03:21.115Z,4.50
2018-11-20T02:06:04.580Z,4.50
2018-11-20T02:08:54.020Z,4.40
2018-11-20T02:11:38.891Z,4.40
2018-11-20T02:14:39.537Z,4.30
2018-11-20T02:17:46.736Z,4.30
2018-11-20T02:20:38.505Z,4.30
2018-11-20T02:23:29.402Z,4.20
2018-11-20T02:26:13.484Z,4.20
2018-11-20T02:28:58.527Z,4.20
2018-11-20T02:31:56.836Z,4.10
2018-11-20T02:35:04.505Z,4.10
2018-11-20T02:37:53.600Z,4.10
2018-11-20T02:40:41.122Z,4.20
2018-11-20T02:43:48.651Z,4.20
2018-11-20T02:46:45.677Z,4.20
2018-11-20T02:49:50.394Z,4.20
2018-11-20T02:52:51.582Z,4.20
2018-11-20T02:55:52.563Z,4.10
2018-11-20T03:01:25.250Z,3.80
2018-11-20T03:04:21.213Z,4.00
2018-11-20T03:07:12.289Z,4.00
2018-11-20T03:10:10.651Z,4.00
2018-11-20T03:13:01.430Z,4.20
2018-11-20T03:15:54.292Z,4.10
2018-11-20T03:18:57.889Z,4.30
2018-11-20T03:21:48.176Z,4.20
2018-11-20T03:24:43.380Z,4.20
2018-11-20T03:27:38.707Z,4.10
2018-11-20T03:31:06.980Z,4.20
2018-11-20T03:34:00.657Z,4.20
2018-11-20T03:36:47.680Z,4.00
2018-11-20T03:39:49.090Z,4.00
2018-11-20T03:42:50.594Z,4.00
2018-11-20T03:45:55.030Z,3.90
2018-11-20T03:48:47.507Z,4.10
2018-11-20T03:51:38.645Z,4.20
2018-11-20T03:54:40.123Z,4.20
2018-11-20T03:57:40.747Z,4.10
2018-11-20T04:00:27.972Z,4.10
2018-11-20T04:03:19.116Z,4.20
2018-11-20T04:06:01.383Z,4.00
2018-11-20T04:08:52.496Z,4.00
2018-11-20T04:11:38.885Z,3.90
2018-11-20T04:14:37.121Z,4.10
2018-11-20T04:17:27.356Z,4.00
2018-11-20T04:20:11.628Z,4.00
2018-11-20T04:23:02.687Z,3.90
2018-11-20T04:25:41.878Z,3.70
2018-11-20T04:28:24.347Z,3.90
2018-11-20T04:31:52.978Z,4.00
2018-11-20T04:34:40.104Z,3.90
2018-11-20T04:37:31.114Z,4.10
2018-11-20T04:40:35.682Z,3.90
2018-11-20T04:43:27.419Z,4.00
2018-11-20T04:46:29.601Z,4.10
2018-11-20T04:49:39.948Z,4.20
2018-11-20T04:52:50.333Z,4.20
2018-11-20T04:55:33.205Z,4.20
2018-11-20T04:58:40.941Z,4.20
2018-11-20T05:01:51.727Z,4.20
2018-11-20T05:04:38.926Z,4.10
2018-11-20T05:07:21.544Z,4.00
2018-11-20T05:10:05.581Z,4.20
2018-11-20T05:12:56.394Z,4.20
2018-11-20T05:15:40.209Z,4.20
2018-11-20T05:18:30.971Z,4.10
2018-11-20T05:21:38.166Z,4.00
2018-11-20T05:24:29.736Z,4.00
2018-11-20T05:27:13.550Z,4.20
2018-11-20T05:30:09.195Z,4.10
2018-11-20T05:33:00.118Z,4.10
2018-11-20T05:35:41.479Z,4.10
2018-11-20T05:38:43.076Z,4.20
2018-11-20T05:41:40.622Z,4.20
2018-11-20T05:44:39.509Z,4.20
2018-11-20T05:47:28.991Z,4.10
2018-11-20T05:50:27.344Z,4.00
2018-11-20T05:53:25.109Z,4.10
2018-11-20T05:56:06.921Z,4.10
2018-11-20T05:58:51.194Z,4.10
2018-11-20T06:01:33.434Z,4.00
2018-11-20T06:04:27.684Z,4.20
2018-11-20T06:07:22.585Z,4.20
2018-11-20T06:10:13.424Z,4.10
2018-11-20T06:13:04.058Z,4.20
2018-11-20T06:15:56.531Z,4.20
2018-11-20T06:18:42.374Z,4.20
2018-11-20T06:21:34.931Z,4.20
2018-11-20T06:24:39.322Z,4.30
2018-11-20T06:27:32.082Z,4.20
2018-11-20T06:30:24.507Z,4.30
2018-11-20T06:33:13.357Z,4.20
2018-11-20T06:36:04.294Z,4.20
2018-11-20T06:38:56.705Z,4.20
2018-11-20T06:41:53.112Z,4.30
2018-11-20T06:44:57.877Z,4.30
2018-11-20T06:47:41.767Z,4.30
2018-11-20T06:50:40.306Z,4.20
2018-11-20T06:53:38.689Z,4.20
2018-11-20T06:56:24.522Z,4.30
2018-11-20T06:59:15.620Z,4.40
2018-11-20T07:02:08.030Z,4.70
2018-11-20T07:04:57.029Z,4.80
2018-11-20T07:07:48.363Z,4.50
2018-11-20T07:10:44.766Z,4.70
2018-11-20T07:13:37.468Z,4.60
2018-11-20T07:17:04.181Z,4.60
2018-11-20T07:19:49.238Z,4.90
2018-11-20T07:22:47.654Z,5.30
2018-11-20T07:25:36.139Z,5.70
2018-11-20T07:28:27.771Z,5.70
2018-11-20T07:31:18.756Z,5.80
2018-11-20T07:34:23.010Z,6.10
2018-11-20T07:39:59.313Z,6.20
2018-11-20T07:42:52.348Z,6.40
2018-11-20T07:45:43.309Z,6.70
2018-11-20T07:48:51.060Z,6.20
2018-11-20T07:51:46.310Z,5.40
2018-11-20T07:54:41.344Z,5.10
2018-11-20T07:57:32.751Z,5.00
2018-11-20T08:00:24.170Z,4.70
2018-11-20T08:03:21.974Z,4.80
2018-11-20T08:06:17.219Z,4.90
2018-11-20T08:09:07.578Z,4.60
2018-11-20T08:12:01.831Z,4.50
2018-11-20T08:14:54.295Z,4.40
2018-11-20T08:18:01.846Z,4.50
2018-11-20T08:20:53.366Z,4.50
2018-11-20T08:24:01.012Z,4.50
2018-11-20T08:27:02.411Z,4.60
2018-11-20T08:30:07.117Z,4.80
2018-11-20T08:32:52.860Z,4.60
2018-11-20T08:35:43.900Z,4.40
2018-11-20T08:38:40.033Z,4.30
2018-11-20T08:41:47.351Z,4.20
2018-11-20T08:44:36.658Z,4.40
2018-11-20T08:47:27.798Z,4.40
2018-11-20T08:50:16.105Z,4.60
2018-11-20T08:52:58.015Z,4.60
2018-11-20T08:55:48.032Z,4.60
2018-11-20T08:58:39.956Z,4.40
2018-11-20T09:01:44.350Z,4.50
2018-11-20T09:04:51.881Z,4.30
2018-11-20T09:07:53.636Z,4.30
2018-11-20T09:10:55.423Z,4.50
2018-11-20T09:13:46.503Z,4.50
2018-11-20T09:16:44.867Z,4.60
2018-11-20T09:19:43.109Z,4.30
2018-11-20T09:22:35.538Z,4.30
2018-11-20T09:25:37.112Z,4.40
2018-11-20T09:28:22.310Z,4.40
2018-11-20T09:31:26.954Z,4.50
2018-11-20T09:34:22.475Z,4.60
2018-11-20T09:37:20.401Z,4.60
2018-11-20T09:40:55.109Z,4.50
2018-11-20T09:43:55.541Z,4.40
2018-11-20T09:46:42.873Z,4.40
2018-11-20T09:49:50.050Z,4.20
2018-11-20T09:52:41.118Z,4.30
2018-11-20T09:55:31.970Z,4.30
2018-11-20T09:58:26.055Z,4.30
2018-11-20T10:01:16.931Z,4.40
2018-11-20T10:03:57.879Z,4.40
2018-11-20T10:06:53.115Z,4.40
2018-11-20T10:09:44.200Z,4.30
2018-11-20T10:12:39.243Z,4.50
2018-11-20T10:15:30.090Z,4.50
2018-11-20T10:18:26.708Z,4.50
2018-11-20T10:21:17.474Z,4.60
2018-11-20T10:24:08.879Z,4.80
2018-11-20T10:27:01.326Z,4.80
2018-11-20T10:29:59.526Z,4.50
2018-11-20T10:33:04.107Z,4.50
2018-11-20T10:36:12.143Z,4.50
2018-11-20T10:38:56.732Z,4.40
2018-11-20T10:41:47.855Z,4.30
2018-11-20T10:44:39.412Z,4.40
2018-11-20T10:47:27.067Z,4.50
2018-11-20T10:50:34.510Z,4.20
2018-11-20T10:53:29.649Z,4.40
2018-11-20T10:56:30.769Z,4.50
2018-11-20T10:59:21.765Z,4.50
2018-11-20T11:02:12.786Z,4.60
2018-11-20T11:05:04.086Z,4.60
2018-11-20T11:07:55.171Z,4.70
2018-11-20T11:10:46.220Z,4.80
2018-11-20T11:13:49.964Z,4.60
2018-11-20T11:16:51.440Z,4.80
2018-11-20T11:19:53.202Z,4.70
2018-11-20T11:22:45.618Z,4.80
2018-11-20T11:25:40.648Z,4.80
2018-11-20T11:28:31.379Z,4.60
2018-11-20T11:31:23.848Z,4.60
2018-11-20T11:34:15.527Z,4.50
2018-11-20T11:37:13.562Z,4.60
2018-11-20T11:39:52.078Z,4.70
2018-11-20T11:42:46.261Z,4.80
2018-11-20T11:45:38.759Z,4.80
2018-11-20T11:48:31.646Z,4.70
2018-11-20T11:51:33.428Z,4.50
2018-11-20T11:54:26.268Z,4.70
2018-11-20T11:57:24.310Z,4.80
2018-11-20T12:00:15.330Z,4.80
2018-11-20T12:05:58.250Z,4.50
2018-11-20T12:08:38.943Z,4.80
2018-11-20T12:11:30.271Z,4.60
2018-11-20T12:14:20.341Z,4.60
2018-11-20T12:17:12.765Z,4.70
2018-11-20T12:20:20.590Z,4.70
2018-11-20T12:23:05.745Z,4.80
2018-11-20T12:25:58.504Z,4.70
2018-11-20T12:28:38.847Z,4.70
2018-11-20T12:31:24.766Z,4.70
2018-11-20T12:34:29.019Z,4.70
2018-11-20T12:37:28.191Z,4.60
2018-11-20T12:40:19.190Z,4.60
2018-11-20T12:43:05.296Z,4.60
2018-11-20T12:45:57.209Z,4.60
2018-11-20T12:48:45.642Z,4.60
2018-11-20T12:51:43.915Z,4.60
2018-11-20T12:54:45.177Z,4.60
2018-11-20T12:57:46.437Z,4.70
2018-11-20T13:00:56.905Z,4.70
2018-11-20T13:03:47.776Z,4.70
2018-11-20T13:06:39.002Z,4.50
2018-11-20T13:09:42.968Z,4.50
2018-11-20T13:12:53.772Z,4.50
2018-11-20T13:15:47.118Z,4.60
2018-11-20T13:18:54.344Z,4.50
2018-11-20T13:21:44.969Z,4.50
2018-11-20T13:24:36.031Z,4.40
2018-11-20T13:27:38.116Z,4.30
2018-11-20T13:30:23.005Z,4.40
2018-11-20T13:33:11.492Z,4.40
2018-11-20T13:36:07.651Z,4.40
2018-11-20T13:39:04.363Z,4.40
2018-11-20T13:42:01.395Z,4.40
2018-11-20T13:44:55.557Z,4.30
2018-11-20T13:47:41.567Z,4.40
2018-11-20T13:50:32.732Z,4.40
2018-11-20T13:53:40.868Z,4.10
2018-11-20T13:56:28.664Z,4.30
2018-11-20T13:59:33.207Z,4.30
2018-11-20T14:02:35.295Z,4.20
2018-11-20T14:05:19.008Z,4.20
2018-11-20T14:08:21.997Z,4.00
2018-11-20T14:11:14.177Z,4.10
2018-11-20T14:13:59.434Z,4.00
2018-11-20T14:17:07.212Z,4.00
2018-11-20T14:19:48.139Z,3.90
2018-11-20T14:22:33.342Z,3.90
2018-11-20T14:25:39.953Z,4.00
2018-11-20T14:28:22.759Z,3.90
2018-11-20T14:31:06.669Z,3.80
2018-11-20T14:33:51.371Z,3.80
2018-11-20T14:36:43.167Z,3.90
2018-11-20T14:39:35.716Z,3.90
2018-11-20T14:42:31.227Z,3.80
2018-11-20T14:45:29.795Z,3.90
2018-11-20T14:48:21.782Z,3.90
2018-11-20T14:51:17.299Z,3.80
2018-11-20T14:54:13.610Z,3.80
2018-11-20T14:57:12.161Z,3.70
2018-11-20T15:00:02.277Z,3.90
2018-11-20T15:02:48.154Z,3.70
2018-11-20T15:05:38.812Z,3.70
2018-11-20T15:08:40.125Z,3.70
2018-11-20T15:11:35.445Z,3.70
2018-11-20T15:14:28.053Z,3.70
2018-11-20T15:17:32.757Z,3.70
2018-11-20T15:20:16.668Z,3.80
2018-11-20T15:23:13.956Z,3.90
2018-11-20T15:26:05.340Z,4.00
2018-11-20T15:28:50.516Z,3.90
2018-11-20T15:31:58.116Z,3.90
2018-11-20T15:34:45.235Z,3.80
2018-11-20T15:37:37.692Z,3.90
2018-11-20T15:40:48.321Z,3.90
2018-11-20T15:43:40.772Z,3.90
2018-11-20T15:46:42.549Z,3.80
2018-11-20T15:49:35.239Z,3.70
2018-11-20T15:52:24.610Z,3.90
2018-11-20T15:55:15.667Z,3.90
2018-11-20T15:58:05.601Z,4.00
2018-11-20T16:00:53.699Z,4.00
2018-11-20T16:03:39.956Z,4.00
2018-11-20T16:06:30.730Z,3.90
2018-11-20T16:09:23.394Z,3.90
2018-11-20T16:12:15.240Z,3.90
2018-11-20T16:15:25.520Z,3.90
2018-11-20T16:18:33.114Z,4.00
2018-11-20T16:21:23.965Z,3.90
2018-11-20T16:24:15.601Z,3.90
2018-11-20T16:27:16.728Z,3.90
2018-11-20T16:30:09.409Z,3.70
2018-11-20T16:33:01.753Z,3.80
2018-11-20T16:36:04.509Z,4.00
2018-11-20T16:38:55.767Z,4.10
2018-11-20T16:41:42.705Z,4.20
2018-11-20T16:44:33.713Z,4.30
2018-11-20T16:47:19.955Z,4.30
2018-11-20T16:50:19.788Z,4.40
2018-11-20T16:58:16.879Z,4.20
2018-11-20T17:01:12.006Z,4.40
2018-11-20T17:04:00.210Z,4.10
2018-11-20T17:06:52.007Z,4.20
2018-11-20T17:10:01.036Z,4.20
2018-11-20T17:13:08.092Z,4.10
2018-11-20T17:15:49.713Z,4.20
2018-11-20T17:18:40.386Z,4.30
2018-11-20T17:21:31.786Z,4.30
2018-11-20T17:24:35.494Z,4.30
2018-11-20T17:27:42.898Z,4.20
2018-11-20T17:30:33.153Z,4.10
2018-11-20T17:33:34.342Z,4.20
2018-11-20T17:36:25.039Z,4.20
2018-11-20T17:39:21.116Z,4.20
2018-11-20T17:42:11.318Z,4.10
2018-11-20T17:45:18.872Z,4.20
2018-11-20T17:48:16.828Z,4.20
2018-11-20T17:51:11.479Z,4.20
2018-11-20T17:54:03.342Z,4.30
2018-11-20T17:57:13.525Z,4.10
2018-11-20T18:00:04.306Z,4.20
2018-11-20T18:02:47.972Z,4.10
2018-11-20T18:05:51.324Z,4.20
2018-11-20T18:08:44.087Z,4.20
2018-11-20T18:11:37.448Z,4.20
2018-11-20T18:14:33.268Z,4.20
2018-11-20T18:17:36.965Z,4.30
2018-11-20T18:20:34.436Z,4.20
2018-11-20T18:23:29.120Z,4.30
2018-11-20T18:26:26.010Z,4.20
2018-11-20T18:29:19.763Z,4.20
2018-11-20T18:32:14.504Z,4.00
2018-11-20T18:35:07.058Z,4.00
2018-11-20T18:37:57.231Z,4.00
2018-11-20T18:40:47.486Z,4.00
2018-11-20T18:43:39.291Z,3.90
2018-11-20T18:46:29.471Z,4.00
2018-11-20T18:49:33.575Z,4.10
2018-11-20T18:52:40.575Z,4.20
2018-11-20T18:55:31.158Z,4.20
2018-11-20T18:58:21.400Z,4.30
2018-11-20T19:01:22.206Z,4.30
2018-11-20T19:04:08.000Z,4.00
2018-11-20T19:07:02.469Z,4.00
2018-11-20T19:10:06.633Z,4.20
2018-11-20T19:12:56.085Z,4.10
2018-11-20T19:16:02.880Z,4.10
2018-11-20T19:18:53.423Z,4.10
2018-11-20T19:21:44.032Z,4.00
2018-11-20T19:24:34.374Z,4.10
2018-11-20T19:27:31.839Z,4.20
2018-11-20T19:30:15.298Z,4.00
2018-11-20T19:33:00.645Z,4.40
2018-11-20T19:36:07.570Z,4.30
2018-11-20T19:38:58.201Z,4.10
2018-11-20T19:42:08.732Z,4.10
2018-11-20T19:44:59.869Z,4.10
2018-11-20T19:47:46.104Z,4.10
2018-11-20T19:50:50.241Z,4.10
2018-11-20T19:53:45.968Z,4.20
2018-11-20T19:56:40.688Z,4.30
2018-11-20T19:59:42.757Z,4.20
2018-11-20T20:02:50.223Z,4.00
2018-11-20T20:05:50.341Z,4.10
2018-11-20T20:08:42.606Z,4.30
2018-11-20T20:11:40.501Z,4.20
2018-11-20T20:14:32.315Z,4.00
2018-11-20T20:17:36.299Z,4.20
2018-11-20T20:20:49.549Z,4.20
2018-11-20T20:23:39.880Z,4.10
2018-11-20T20:26:37.787Z,4.00
2018-11-20T20:29:37.527Z,4.00
2018-11-20T20:32:27.732Z,4.10
2018-11-20T20:35:19.581Z,4.20
2018-11-20T20:38:11.236Z,4.20
2018-11-20T20:41:01.393Z,4.20
2018-11-20T20:44:09.224Z,4.10
2018-11-20T20:46:55.747Z,4.00
2018-11-20T20:50:05.699Z,4.10
2018-11-20T20:52:46.969Z,4.20
2018-11-20T20:55:37.683Z,4.40
2018-11-20T20:58:35.917Z,4.20
2018-11-20T21:01:24.374Z,4.30
2018-11-20T21:04:17.143Z,4.30
2018-11-20T21:07:01.494Z,4.30
2018-11-20T21:10:08.654Z,4.30
2018-11-20T21:12:59.276Z,4.20
2018-11-20T21:16:09.979Z,4.30
2018-11-20T21:19:15.525Z,4.20
2018-11-20T21:22:15.886Z,4.20
2018-11-20T21:25:17.148Z,4.20
2018-11-20T21:28:07.742Z,4.20
2018-11-20T21:31:14.436Z,4.20
2018-11-20T21:34:06.905Z,4.20
2018-11-20T21:36:47.195Z,4.10
2018-11-20T21:39:37.689Z,4.30
2018-11-20T21:42:28.193Z,4.30
2018-11-20T21:45:27.380Z,4.20
2018-11-20T21:48:17.991Z,4.10
2018-11-20T21:51:10.012Z,4.20
2018-11-20T21:54:04.637Z,4.30
2018-11-20T21:56:52.351Z,4.20
2018-11-20T21:59:52.015Z,4.00
2018-11-20T22:02:56.641Z,4.10
2018-11-20T22:05:47.069Z,4.10
2018-11-20T22:08:37.705Z,4.10
2018-11-20T22:11:28.340Z,4.00
2018-11-20T22:14:17.582Z,4.20
2018-11-20T22:17:21.434Z,4.30
2018-11-20T22:20:25.191Z,4.30
2018-11-20T22:23:19.406Z,4.00
2018-11-20T22:25:59.999Z,3.90
2018-11-20T22:28:54.228Z,3.90
2018-11-20T22:31:51.074Z,4.20
2018-11-20T22:34:42.983Z,4.10
2018-11-20T22:37:34.701Z,4.00
2018-11-20T22:40:25.790Z,3.80
2018-11-20T22:43:17.931Z,4.00
2018-11-20T22:46:09.312Z,4.00
2018-11-20T22:49:01.098Z,4.10
2018-11-20T22:51:52.774Z,4.10
2018-11-20T22:54:39.379Z,4.10
2018-11-20T22:57:31.129Z,4.00
2018-11-20T23:00:21.416Z,4.00
2018-11-20T23:03:21.996Z,3.90
2018-11-20T23:06:11.761Z,4.10
2018-11-20T23:08:43.736Z,4.00
2018-11-20T23:11:15.843Z,3.90
2018-11-20T23:13:47.940Z,3.90
2018-11-20T23:16:20.058Z,3.90
2018-11-20T23:18:52.070Z,3.90
2018-11-20T23:21:24.811Z,4.00
2018-11-20T23:23:56.835Z,4.00
2018-11-20T23:26:29.031Z,3.90
2018-11-20T23:29:01.490Z,3.90
2018-11-20T23:31:35.006Z,4.00
2018-11-20T23:34:09.647Z,4.10
2018-11-20T23:36:40.798Z,4.00
2018-11-20T23:39:20.876Z,4.00
2018-11-20T23:41:52.935Z,3.90
2018-11-20T23:44:25.029Z,4.00
2018-11-20T23:46:57.632Z,4.00
2018-11-20T23:49:38.193Z,4.10
2018-11-20T23:52:12.890Z,4.00
2018-11-20T23:54:45.185Z,4.00
2018-11-20T23:57:23.230Z,4.00
2018-11-20T23:59:55.773Z,4.10
